Time;durP1;ratioP1;P1;durP2;ratioP2;P2;SDS_P1;SDS_P2;PMS_P1;PMS_P2;Temp;Humidity;BMP_temperature;BMP_pressure;BME280_temperature;BME280_humidity;BME280_pressure;Samples;Min_cycle;Max_cycle;Signal;HPM_P1;HPM_P2
2021/03/14 00:00:10;;;;;;;9.68;2.40;;;7.00;84.00;;;6.98;69.61;99024.00;5016309;28;20050;-80
2021/03/14 00:02:37;;;;;;;8.60;2.63;;;6.90;84.40;;;6.99;69.70;99031.09;5015790;28;20054;-81
2021/03/14 00:05:05;;;;;;;8.35;2.35;;;6.90;84.30;;;7.08;68.95;99037.16;5016130;28;20050;-81
2021/03/14 00:07:32;;;;;;;10.65;2.55;;;6.90;84.10;;;7.11;68.90;99038.66;5014961;28;20041;-80
2021/03/14 00:09:59;;;;;;;7.72;2.47;;;6.90;84.30;;;7.08;69.00;99049.84;5015985;28;20053;-80
2021/03/14 00:12:25;;;;;;;9.02;2.58;;;6.90;84.40;;;7.10;69.14;99053.19;5016021;28;20538;-80
2021/03/14 00:14:53;;;;;;;7.97;2.83;;;6.90;84.20;;;7.11;68.53;99063.00;5015672;28;20056;-80
2021/03/14 00:17:20;;;;;;;7.47;2.65;;;6.80;84.60;;;7.13;68.48;99058.22;5015332;28;20038;-80
2021/03/14 00:19:47;;;;;;;8.70;2.72;;;6.80;84.80;;;7.11;68.37;99061.13;5015892;28;20124;-80
2021/03/14 00:22:14;;;;;;;8.32;1.92;;;6.80;84.50;;;7.11;68.24;99071.13;5015935;28;20050;-80
2021/03/14 00:24:40;;;;;;;8.43;2.63;;;6.80;84.70;;;6.99;68.47;99076.25;5015455;28;20141;-80
2021/03/14 00:27:08;;;;;;;8.02;2.35;;;6.70;84.30;;;6.98;68.45;99083.50;5015150;28;20050;-80
2021/03/14 00:29:35;;;;;;;8.25;2.00;;;6.60;84.70;;;6.99;68.68;99079.78;5016026;28;20133;-80
2021/03/14 00:32:03;;;;;;;10.07;2.97;;;6.50;84.60;;;6.99;68.84;99090.59;5015626;28;20116;-80
2021/03/14 00:34:30;;;;;;;9.13;2.35;;;6.50;84.70;;;6.92;68.91;99089.69;5015623;28;20041;-80
2021/03/14 00:36:58;;;;;;;6.57;2.22;;;6.50;84.70;;;6.93;68.50;99104.91;5015079;28;20061;-80
2021/03/14 00:39:25;;;;;;;6.88;2.20;;;6.60;85.00;;;6.92;68.83;99118.63;5014910;28;20076;-80
2021/03/14 00:41:52;;;;;;;8.65;2.38;;;6.40;85.10;;;6.92;68.70;99116.75;5015384;28;20176;-80
2021/03/14 00:44:19;;;;;;;7.97;2.22;;;6.40;85.20;;;6.89;69.18;99119.81;5013099;28;20050;-80
2021/03/14 00:46:46;;;;;;;7.45;2.40;;;6.40;85.10;;;6.90;68.62;99123.38;5014688;28;20041;-80
2021/03/14 00:49:17;;;;;;;8.38;3.03;;;6.30;85.00;;;6.86;69.01;99122.94;5014882;28;20081;-80
2021/03/14 00:51:44;;;;;;;7.18;2.60;;;6.40;85.20;;;6.86;68.66;99133.75;5013474;28;20054;-80
2021/03/14 00:54:12;;;;;;;8.00;2.67;;;6.40;85.40;;;6.89;68.98;99136.06;5013400;28;20041;-80
2021/03/14 00:56:39;;;;;;;11.73;3.40;;;6.40;85.60;;;6.89;69.36;99138.75;5013232;28;20097;-80
2021/03/14 00:59:06;;;;;;;10.30;2.75;;;6.40;85.60;;;6.87;69.57;99145.41;5013793;28;20057;-80
2021/03/14 01:01:33;;;;;;;9.80;2.80;;;6.40;85.80;;;6.87;69.02;99153.50;5015578;28;20514;-80
2021/03/14 01:03:59;;;;;;;7.85;2.78;;;6.40;85.90;;;6.86;69.36;99147.28;5014628;28;20045;-80
2021/03/14 01:06:27;;;;;;;6.72;2.60;;;6.40;85.70;;;6.85;69.19;99148.28;5014036;28;20125;-81
2021/03/14 01:08:54;;;;;;;6.88;2.75;;;6.40;85.60;;;6.82;69.42;99159.53;5013108;28;20069;-80
2021/03/14 01:11:22;;;;;;;10.98;2.67;;;6.40;85.50;;;6.83;69.12;99156.63;5015463;28;20136;-80
2021/03/14 01:14:25;;;;;;;8.85;2.75;;;6.40;85.30;;;6.68;69.93;99152.28;5002229;28;20046;-80
2021/03/14 01:17:05;;;;;;;8.30;2.65;;;6.40;85.30;;;6.68;69.54;99165.81;5013427;28;20121;-80
2021/03/14 01:19:33;;;;;;;8.43;2.65;;;6.50;85.20;;;6.76;69.78;99168.38;5013790;28;20081;-80
2021/03/14 01:22:02;;;;;;;7.10;2.47;;;6.60;85.40;;;6.75;69.11;99166.72;5014541;28;20471;-80
2021/03/14 01:24:29;;;;;;;7.20;2.80;;;6.40;85.20;;;6.74;69.59;99168.59;5013492;28;20042;-80
2021/03/14 01:26:57;;;;;;;11.30;3.00;;;6.40;85.40;;;6.71;69.32;99170.84;5013455;28;20116;-80
2021/03/14 01:29:24;;;;;;;13.82;3.30;;;6.50;85.10;;;6.62;69.62;99176.34;5013854;28;20060;-80
2021/03/14 01:31:50;;;;;;;11.52;3.55;;;6.50;84.70;;;6.70;69.68;99180.84;5013638;28;20479;-80
2021/03/14 01:34:17;;;;;;;9.93;2.95;;;6.50;84.70;;;6.76;69.26;99174.66;5014329;28;20080;-80
2021/03/14 01:36:44;;;;;;;10.02;3.67;;;6.50;84.90;;;6.76;69.31;99187.31;5013995;28;20046;-81
2021/03/14 01:39:12;;;;;;;10.48;3.78;;;6.50;85.00;;;6.79;69.95;99184.22;5018327;28;20570;-80
2021/03/14 01:41:39;;;;;;;10.88;3.50;;;6.50;85.30;;;6.82;68.98;99184.69;5018504;28;20057;-80
2021/03/14 01:44:07;;;;;;;17.20;4.38;;;6.50;85.40;;;6.81;69.09;99206.50;5018826;28;20105;-80
2021/03/14 01:46:34;;;;;;;10.80;4.22;;;6.50;85.30;;;6.86;69.63;99193.25;5017937;28;20053;-80
2021/03/14 01:49:01;;;;;;;12.73;4.18;;;6.60;85.30;;;6.83;69.88;99199.91;5018180;28;20108;-80
2021/03/14 01:51:28;;;;;;;12.70;4.00;;;6.60;85.00;;;6.84;68.97;99200.72;5018412;28;20139;-80
2021/03/14 01:53:56;;;;;;;10.40;4.15;;;6.50;84.90;;;6.83;69.67;99208.00;5018674;28;20486;-80
2021/03/14 01:56:23;;;;;;;13.88;4.53;;;6.60;85.10;;;6.84;69.29;99200.72;5017819;28;20069;-80
2021/03/14 01:58:51;;;;;;;12.93;4.00;;;6.60;84.70;;;6.85;69.47;99205.09;5018387;28;20065;-80
2021/03/14 02:01:17;;;;;;;11.40;3.70;;;6.60;85.00;;;6.83;69.67;99208.00;5018012;28;20042;-80
2021/03/14 02:03:44;;;;;;;12.73;3.60;;;6.60;84.80;;;6.81;69.90;99207.34;5018028;28;20459;-80
2021/03/14 02:06:11;;;;;;;10.88;3.72;;;6.60;85.30;;;6.83;69.98;99209.84;5236491;23;20073;-80
2021/03/14 02:08:38;;;;;;;10.88;3.58;;;6.60;85.50;;;6.84;70.01;99211.53;5038158;28;20053;-80
2021/03/14 02:11:07;;;;;;;9.48;4.05;;;6.60;85.00;;;6.82;69.89;99213.59;5037540;28;20577;-80
2021/03/14 02:13:40;;;;;;;12.90;3.72;;;6.60;85.20;;;6.85;69.82;99215.91;5038188;28;20057;-80
2021/03/14 02:16:12;;;;;;;14.02;3.80;;;6.60;85.40;;;6.73;69.90;99220.16;5037414;28;20045;-80
2021/03/14 02:18:44;;;;;;;11.88;3.47;;;6.70;84.90;;;6.79;70.20;99224.78;5038469;28;20458;-80
2021/03/14 02:21:12;;;;;;;12.52;3.45;;;6.70;85.00;;;6.77;70.83;99229.56;5037924;28;20042;-80
2021/03/14 02:23:47;;;;;;;10.30;3.58;;;6.70;85.10;;;6.80;70.44;99226.47;5037893;28;20136;-80
2021/03/14 02:26:20;;;;;;;13.27;3.53;;;6.70;85.30;;;6.85;70.64;99229.41;5035908;28;20089;-80
2021/03/14 02:28:49;;;;;;;10.32;3.22;;;6.70;85.40;;;6.86;70.37;99241.94;5036384;28;20121;-80
2021/03/14 02:31:19;;;;;;;14.63;3.90;;;6.70;85.50;;;6.87;70.28;99232.78;5037701;28;20553;-80
2021/03/14 02:33:50;;;;;;;10.13;3.45;;;6.70;85.40;;;6.90;70.14;99228.88;5037920;28;20065;-80
2021/03/14 02:36:19;;;;;;;9.95;3.72;;;6.70;85.30;;;6.90;70.20;99236.97;5037513;28;20045;-80
2021/03/14 02:38:49;;;;;;;15.50;4.25;;;6.70;85.40;;;6.90;70.65;99243.22;5037896;28;20049;-80
2021/03/14 02:41:17;;;;;;;14.60;3.88;;;6.70;85.60;;;6.89;70.32;99243.41;5037863;28;20076;-80
2021/03/14 02:43:45;;;;;;;10.25;3.60;;;6.70;85.70;;;6.91;70.54;99250.31;5037081;28;20068;-80
2021/03/14 02:46:14;;;;;;;13.00;3.83;;;6.70;85.90;;;6.85;70.46;99256.47;5037397;28;20407;-80
2021/03/14 02:48:41;;;;;;;11.98;3.75;;;6.70;85.50;;;6.88;70.85;99256.09;5037316;28;20160;-80
2021/03/14 02:51:09;;;;;;;13.93;3.30;;;6.70;85.90;;;6.91;70.77;99254.88;5037553;28;20042;-80
2021/03/14 02:53:37;;;;;;;14.27;3.70;;;6.70;85.80;;;6.96;70.39;99255.97;5037397;28;20121;-80
2021/03/14 02:56:05;;;;;;;11.32;3.63;;;6.70;85.70;;;6.94;70.44;99258.03;5037031;28;20120;-80
2021/03/14 02:58:32;;;;;;;11.00;3.22;;;6.70;85.80;;;6.93;69.86;99261.78;5037309;28;20164;-80
2021/03/14 03:01:01;;;;;;;11.35;3.92;;;6.80;85.70;;;6.90;70.26;99270.25;5036803;28;20333;-80
2021/03/14 03:03:29;;;;;;;14.82;4.45;;;6.80;85.50;;;6.94;70.60;99279.66;5036663;28;20499;-80
2021/03/14 03:05:58;;;;;;;12.85;4.05;;;6.70;85.50;;;6.94;70.50;99274.25;5035054;28;20511;-80
2021/03/14 03:08:25;;;;;;;9.93;3.30;;;6.70;86.20;;;6.95;70.05;99286.75;5036745;28;20053;-79
2021/03/14 03:10:53;;;;;;;10.35;3.28;;;6.70;85.90;;;6.94;70.21;99287.78;5037000;28;20415;-80
2021/03/14 03:13:22;;;;;;;10.20;3.78;;;6.70;86.20;;;6.91;70.25;99290.03;5035135;28;20049;-80
2021/03/14 03:15:50;;;;;;;14.13;3.65;;;6.70;85.80;;;6.92;70.63;99297.94;5036588;28;20064;-80
2021/03/14 03:18:19;;;;;;;12.05;3.45;;;6.70;85.80;;;6.88;70.66;99288.53;5036429;28;20056;-80
2021/03/14 03:20:47;;;;;;;11.23;3.55;;;6.70;85.70;;;6.84;70.89;99301.59;5037036;28;20594;-80
2021/03/14 03:23:14;;;;;;;11.32;3.80;;;6.70;85.80;;;6.84;70.74;99303.47;5037416;28;20041;-80
2021/03/14 03:25:41;;;;;;;11.60;3.28;;;6.90;85.70;;;6.87;70.51;99313.06;5035661;28;20771;-80
2021/03/14 03:28:11;;;;;;;12.30;4.18;;;6.60;85.60;;;6.84;70.40;99317.84;5036394;28;20049;-80
2021/03/14 03:30:38;;;;;;;11.50;3.10;;;6.70;85.60;;;6.85;70.38;99324.06;5036204;28;20072;-80
2021/03/14 03:33:06;;;;;;;7.88;4.05;;;6.60;85.60;;;6.86;70.63;99309.53;5037680;28;20052;-80
2021/03/14 03:35:34;;;;;;;12.45;3.53;;;6.60;85.90;;;6.89;70.44;99321.81;5036803;28;20483;-80
2021/03/14 03:38:02;;;;;;;12.18;3.75;;;6.60;85.70;;;6.91;70.23;99330.59;5036198;28;20605;-80
2021/03/14 03:40:31;;;;;;;14.93;4.13;;;6.60;85.70;;;6.89;70.04;99333.47;5036245;28;20041;-80
2021/03/14 03:43:03;;;;;;;11.38;3.70;;;6.60;85.60;;;6.87;70.25;99334.69;5036397;28;20534;-80
2021/03/14 03:45:34;;;;;;;12.40;3.75;;;6.60;85.60;;;6.83;70.29;99335.09;5037018;28;20077;-79
2021/03/14 03:48:02;;;;;;;11.55;3.70;;;6.60;85.70;;;6.84;70.40;99341.34;5034816;28;20080;-80
2021/03/14 03:50:30;;;;;;;8.65;3.38;;;6.60;86.10;;;6.83;70.39;99343.22;5037115;28;20057;-80
2021/03/14 03:52:58;;;;;;;11.18;3.13;;;6.60;85.60;;;6.85;70.21;99348.41;5036924;28;20053;-80
2021/03/14 03:55:28;;;;;;;14.52;3.80;;;6.60;85.80;;;6.86;70.22;99350.09;5036281;28;20084;-80
2021/03/14 03:57:56;;;;;;;10.88;3.50;;;6.60;85.90;;;6.85;70.38;99353.81;5035739;28;20538;-80
2021/03/14 04:00:23;;;;;;;15.15;3.90;;;6.60;85.70;;;6.83;69.91;99366.69;5035451;28;20041;-80
2021/03/14 04:02:51;;;;;;;12.20;3.95;;;6.60;85.90;;;6.82;70.22;99367.75;5035240;28;20077;-80
2021/03/14 04:05:19;;;;;;;11.43;3.63;;;6.60;85.80;;;6.81;70.23;99368.75;5035827;28;20076;-80
2021/03/14 04:07:49;;;;;;;8.77;3.20;;;6.60;85.90;;;6.74;70.20;99378.63;5035847;28;20041;-80
2021/03/14 04:10:20;;;;;;;10.05;3.78;;;6.60;85.70;;;6.76;70.23;99384.69;5036090;28;20091;-80
2021/03/14 04:12:51;;;;;;;10.68;3.22;;;6.60;85.60;;;6.80;69.62;99380.59;5035451;28;20038;-80
2021/03/14 04:15:22;;;;;;;13.35;3.58;;;6.60;85.30;;;6.74;70.13;99386.75;5035668;28;20041;-80
2021/03/14 04:17:50;;;;;;;17.63;4.47;;;6.70;85.00;;;6.80;70.09;99389.56;5034565;28;20091;-80
2021/03/14 04:20:22;;;;;;;14.35;4.13;;;6.60;85.30;;;6.84;70.09;99395.44;5035200;28;20514;-81
2021/03/14 04:22:54;;;;;;;13.48;3.28;;;6.60;85.70;;;6.72;70.04;99396.91;5035710;28;20088;-80
2021/03/14 04:25:23;;;;;;;12.68;3.38;;;6.60;85.10;;;6.75;70.68;99394.69;5033981;28;20065;-81
2021/03/14 04:27:53;;;;;;;11.77;2.83;;;6.60;85.30;;;6.78;69.82;99404.28;5035019;28;20049;-81
2021/03/14 04:30:23;;;;;;;12.20;3.17;;;6.60;85.20;;;6.76;70.23;99403.63;5036083;28;20053;-81
2021/03/14 04:32:52;;;;;;;8.95;2.95;;;6.50;85.70;;;6.80;70.13;99410.34;5034654;28;20144;-81
2021/03/14 04:35:20;;;;;;;12.23;3.20;;;6.50;85.80;;;6.76;69.63;99411.72;5034464;28;20148;-81
2021/03/14 04:37:47;;;;;;;13.88;3.78;;;6.60;85.50;;;6.73;69.94;99420.22;5034910;28;20052;-81
2021/03/14 04:40:16;;;;;;;11.27;3.72;;;6.60;85.20;;;6.74;70.48;99427.31;5033829;28;20045;-81
2021/03/14 04:42:48;;;;;;;12.38;3.22;;;6.60;85.50;;;6.72;69.82;99421.25;5034399;28;20065;-81
2021/03/14 04:45:17;;;;;;;12.40;3.25;;;6.60;85.60;;;6.68;70.72;99425.34;5034697;28;20103;-81
2021/03/14 04:47:46;;;;;;;14.48;3.33;;;6.60;85.70;;;6.75;69.89;99429.81;5033397;28;20140;-81
2021/03/14 04:50:17;;;;;;;9.07;3.63;;;6.50;85.80;;;6.76;70.65;99436.94;5034929;28;20038;-81
2021/03/14 04:52:47;;;;;;;12.52;3.15;;;6.50;85.80;;;6.79;70.41;99435.69;5035116;28;20492;-81
2021/03/14 04:55:16;;;;;;;11.45;3.28;;;6.50;85.90;;;6.77;69.92;99440.47;5034821;28;20049;-81
2021/03/14 04:57:43;;;;;;;10.48;3.80;;;6.50;86.00;;;6.74;70.80;99446.22;5034581;28;20060;-81
2021/03/14 05:00:15;;;;;;;13.25;3.80;;;6.50;85.90;;;6.75;70.03;99445.22;5034865;28;20068;-81
2021/03/14 05:02:47;;;;;;;10.57;3.05;;;6.50;86.20;;;6.76;70.47;99452.28;5034973;28;20046;-81
2021/03/14 05:05:14;;;;;;;14.90;3.40;;;6.40;86.20;;;6.78;70.42;99461.09;5035434;28;20057;-81
2021/03/14 05:07:43;;;;;;;13.45;3.47;;;6.40;86.20;;;6.79;70.44;99460.03;5035178;28;20476;-81
2021/03/14 05:10:15;;;;;;;11.05;3.35;;;6.50;86.40;;;6.75;69.89;99456.03;5034304;28;20041;-81
2021/03/14 05:12:44;;;;;;;10.20;3.15;;;6.40;86.10;;;6.75;70.27;99466.84;5034032;28;20644;-81
2021/03/14 05:15:13;;;;;;;12.98;3.67;;;6.40;86.40;;;6.70;69.90;99470.13;5034305;28;20134;-81
2021/03/14 05:17:43;;;;;;;13.98;3.90;;;6.40;86.40;;;6.71;70.04;99460.97;5033898;28;20048;-81
2021/03/14 05:20:18;;;;;;;11.77;3.67;;;6.40;86.40;;;6.68;69.76;99477.56;5034315;28;20052;-81
2021/03/14 05:22:47;;;;;;;11.13;3.28;;;6.40;86.50;;;6.63;70.26;99475.41;5034377;28;20064;-81
2021/03/14 05:25:16;;;;;;;9.27;3.33;;;6.40;86.00;;;6.62;71.00;99489.94;5034604;28;20464;-81
2021/03/14 05:27:49;;;;;;;13.98;4.05;;;6.40;86.30;;;6.64;70.72;99482.50;5034758;28;20038;-81
2021/03/14 05:30:20;;;;;;;15.60;3.42;;;6.40;86.30;;;6.65;70.43;99489.59;5034215;28;20052;-81
2021/03/14 05:32:48;;;;;;;15.50;3.72;;;6.30;86.60;;;6.61;70.65;99496.38;5034780;28;20053;-81
2021/03/14 05:35:16;;;;;;;13.73;3.60;;;6.30;86.50;;;6.61;70.73;99496.38;5034180;28;20075;-81
2021/03/14 05:37:43;;;;;;;14.75;3.45;;;6.30;86.60;;;6.61;70.71;99500.97;5033467;28;20041;-81
2021/03/14 05:40:12;;;;;;;16.65;3.22;;;6.30;86.80;;;6.59;70.07;99505.72;5033086;28;20056;-81
2021/03/14 05:42:40;;;;;;;9.23;2.92;;;6.20;86.60;;;6.61;70.54;99515.31;5034295;28;20407;-81
2021/03/14 05:45:10;;;;;;;8.15;3.35;;;6.30;87.00;;;6.59;70.65;99520.06;5033508;28;20050;-81
2021/03/14 05:47:37;;;;;;;9.52;3.08;;;6.20;86.70;;;6.58;70.37;99521.06;5033739;28;20053;-81
2021/03/14 05:50:10;;;;;;;11.98;3.42;;;6.20;87.00;;;6.62;70.72;99521.56;5034130;28;20073;-81
2021/03/14 05:52:40;;;;;;;13.50;3.42;;;6.20;86.90;;;6.61;70.76;99526.13;5033098;28;20084;-81
2021/03/14 05:55:12;;;;;;;11.88;3.40;;;6.30;87.10;;;6.55;70.30;99532.28;5034587;28;20053;-81
2021/03/14 05:57:42;;;;;;;13.02;3.65;;;6.30;86.80;;;6.51;70.86;99530.97;5033501;28;20056;-81
2021/03/14 06:00:11;;;;;;;12.00;4.15;;;6.40;86.30;;;6.54;71.40;99537.84;5034355;28;20045;-81
2021/03/14 06:02:40;;;;;;;14.57;3.65;;;6.40;86.40;;;6.59;71.27;99547.09;5033949;28;20123;-81
2021/03/14 06:05:12;;;;;;;12.85;4.03;;;6.40;86.90;;;6.59;71.15;99548.97;5033757;28;20100;-81
2021/03/14 06:07:39;;;;;;;14.18;3.10;;;6.40;87.00;;;6.61;71.02;99547.75;5034247;28;20068;-81
2021/03/14 06:10:07;;;;;;;12.55;3.40;;;6.30;86.80;;;6.63;71.07;99551.13;5034191;28;20068;-81
2021/03/14 06:12:35;;;;;;;14.10;3.67;;;6.40;87.10;;;6.65;71.48;99554.47;5031931;28;20083;-82
2021/03/14 06:15:03;;;;;;;14.32;3.55;;;6.40;86.80;;;6.65;70.81;99562.59;5034440;28;20049;-80
2021/03/14 06:17:30;;;;;;;14.52;3.70;;;6.40;87.00;;;6.63;70.88;99572.75;5033835;28;20060;-82
2021/03/14 06:19:56;;;;;;;9.98;3.50;;;6.40;86.70;;;6.64;70.82;99563.63;5035083;28;20080;-81
2021/03/14 06:22:26;;;;;;;14.32;3.83;;;6.40;86.70;;;6.65;71.00;99570.69;5033944;28;20050;-82
2021/03/14 06:24:54;;;;;;;16.08;3.58;;;6.40;86.60;;;6.68;70.75;99576.75;5036955;28;20065;-81
2021/03/14 06:27:37;;;;;;;14.00;3.67;;;6.40;86.30;;;6.62;70.96;99581.84;5037598;28;20041;-82
2021/03/14 06:30:09;;;;;;;12.77;3.78;;;6.40;86.30;;;6.65;71.08;99580.69;5038865;28;20056;-82
2021/03/14 06:32:37;;;;;;;10.70;3.33;;;6.40;86.60;;;6.63;70.74;99586.25;5038495;28;20072;-82
2021/03/14 06:35:14;;;;;;;15.32;3.33;;;6.40;86.40;;;6.67;71.45;99586.75;5038640;28;20573;-82
2021/03/14 06:37:44;;;;;;;13.75;4.40;;;6.40;86.70;;;6.62;70.81;99597.25;5038747;28;20122;-82
2021/03/14 06:40:14;;;;;;;10.70;3.80;;;6.50;86.70;;;6.60;70.91;99600.13;5039311;28;20057;-82
2021/03/14 06:42:42;;;;;;;11.30;3.30;;;6.50;86.40;;;6.57;71.14;99599.69;5038971;28;20103;-83
2021/03/14 06:45:12;;;;;;;23.52;4.53;;;6.50;86.30;;;6.60;71.11;99600.13;5038042;28;20049;-82
2021/03/14 06:47:45;;;;;;;8.15;2.53;;;6.50;86.00;;;6.58;70.65;99596.75;5038703;28;20049;-82
2021/03/14 06:50:34;;;;;;;10.40;3.63;;;6.50;86.20;;;6.57;71.28;99603.22;5038450;28;20037;-82
2021/03/14 06:53:12;;;;;;;14.45;3.00;;;6.50;85.80;;;6.60;71.18;99610.94;5037914;28;20045;-83
2021/03/14 06:55:41;;;;;;;12.35;2.80;;;6.60;86.00;;;6.63;71.45;99621.41;5039523;28;20053;-82
2021/03/14 06:58:26;;;;;;;13.23;3.35;;;6.70;85.90;;;6.68;71.25;99628.13;5036760;28;20076;-82
2021/03/14 07:01:14;;;;;;;14.18;3.28;;;6.60;85.80;;;6.69;71.41;99629.81;5054585;28;20056;-82
2021/03/14 07:03:45;;;;;;;13.20;2.80;;;6.60;85.80;;;6.63;70.51;99632.22;5038132;28;20091;-81
2021/03/14 07:06:23;;;;;;;;;;;6.60;85.30;;;6.69;70.95;99635.22;5038387;28;20052;-82
2021/03/14 07:08:53;;;;;;;11.40;3.25;;;6.60;85.80;;;6.71;70.58;99644.00;5037700;28;19987;-82
2021/03/14 07:11:39;;;;;;;9.88;2.97;;;6.60;85.90;;;6.69;71.09;99652.28;5038881;28;20068;-83
2021/03/14 07:14:11;;;;;;;11.48;2.85;;;6.60;85.80;;;6.62;71.03;99656.72;5039207;28;20435;-83
2021/03/14 07:16:46;;;;;;;13.65;3.10;;;6.60;85.80;;;6.65;70.74;99667.19;5038725;28;20128;-82
2021/03/14 07:19:21;;;;;;;10.95;2.90;;;6.60;85.50;;;6.70;70.79;99664.81;5037109;28;20050;-81
2021/03/14 07:22:02;;;;;;;10.27;2.55;;;6.60;85.60;;;6.68;70.96;99663.28;5036589;28;20064;-81
2021/03/14 07:24:35;;;;;;;14.10;3.08;;;6.60;85.40;;;6.73;71.39;99674.41;5037466;28;20045;-81
2021/03/14 07:27:05;;;;;;;9.45;3.15;;;6.60;85.80;;;6.69;70.55;99673.91;5037191;28;20053;-82
2021/03/14 07:29:34;;;;;;;9.75;2.85;;;6.70;85.50;;;6.74;70.49;99681.47;5037700;28;20068;-82
2021/03/14 07:32:02;;;;;;;10.10;2.78;;;6.60;85.50;;;6.75;70.82;99694.00;5037633;28;20123;-81
2021/03/14 07:34:29;;;;;;;10.20;3.42;;;6.60;85.80;;;6.64;70.91;99688.00;5036955;28;20045;-81
2021/03/14 07:36:57;;;;;;;16.42;3.63;;;6.70;85.70;;;6.71;70.95;99695.38;5036925;28;20049;-81
2021/03/14 07:39:23;;;;;;;13.65;4.90;;;6.70;86.10;;;6.72;71.92;99721.38;5035512;28;20053;-81
2021/03/14 07:41:53;;;;;;;17.88;4.65;;;6.60;86.80;;;6.68;72.52;99715.47;5035489;28;20117;-81
2021/03/14 07:44:24;;;;;;;17.13;5.30;;;6.60;87.30;;;6.70;72.52;99720.72;5036996;28;20034;-81
2021/03/14 07:46:53;;;;;;;21.83;5.32;;;6.50;87.60;;;6.69;72.89;99713.63;5035619;28;20103;-81
2021/03/14 07:49:23;;;;;;;11.25;4.43;;;6.50;88.30;;;6.67;72.83;99718.38;5035855;28;20041;-81
2021/03/14 07:51:53;;;;;;;14.60;5.60;;;6.70;88.90;;;6.67;73.63;99726.50;5036289;28;20052;-81
2021/03/14 07:54:26;;;;;;;15.75;6.22;;;6.40;89.30;;;6.68;73.72;99737.09;5036573;28;20049;-81
2021/03/14 07:56:59;;;;;;;13.70;6.18;;;6.40;89.70;;;6.65;73.71;99742.91;5036514;28;20815;-81
2021/03/14 07:59:28;;;;;;;17.15;6.50;;;6.40;89.70;;;6.64;73.93;99746.59;5037039;28;20045;-82
2021/03/14 08:02:29;;;;;;;15.73;6.72;;;6.40;90.00;;;6.65;74.08;99748.31;5052135;28;20420;-80
2021/03/14 08:05:01;;;;;;;18.17;7.40;;;6.30;90.00;;;6.58;73.76;99767.09;5034900;28;20072;-80
2021/03/14 08:07:49;;;;;;;16.23;7.60;;;6.30;90.10;;;6.56;73.83;99763.72;5036012;28;20099;-81
2021/03/14 08:10:40;;;;;;;15.60;7.28;;;6.20;89.90;;;6.48;73.02;99771.88;5035707;28;20072;-81
2021/03/14 08:13:14;;;;;;;14.52;7.50;;;6.10;90.00;;;6.43;73.19;99777.78;5035762;28;20049;-81
2021/03/14 08:15:41;;;;;;;17.40;6.85;;;6.10;89.90;;;6.31;72.91;99790.03;5036027;28;20052;-83
2021/03/14 08:18:37;;;;;;;17.48;7.88;;;5.90;89.30;;;6.25;72.78;99774.50;5035758;28;20045;-81
2021/03/14 08:21:05;;;;;;;17.02;6.60;;;5.80;89.70;;;6.29;72.80;99781.25;5035898;28;20095;-82
2021/03/14 08:23:43;;;;;;;12.48;5.80;;;5.70;90.50;;;6.29;73.92;99785.81;5035215;28;20037;-82
2021/03/14 08:26:18;;;;;;;12.43;6.25;;;5.80;91.30;;;6.28;74.02;99792.22;5035861;28;20041;-81
2021/03/14 08:28:55;;;;;;;13.45;5.03;;;5.70;91.90;;;6.23;73.73;99804.41;5051819;28;20049;-81
2021/03/14 08:31:43;;;;;;;11.93;5.32;;;5.70;91.40;;;6.18;74.17;99806.78;5034210;28;20053;-81
2021/03/14 08:34:20;;;;;;;13.18;5.32;;;5.70;91.70;;;6.23;74.98;99804.41;5035909;28;20037;-81
2021/03/14 08:36:49;;;;;;;11.43;4.72;;;5.80;92.20;;;6.23;74.64;99815.22;5050721;28;20092;-82
2021/03/14 08:39:23;;;;;;;15.82;5.63;;;5.80;92.20;;;6.27;75.41;99810.31;5051427;28;20411;-81
2021/03/14 08:41:57;;;;;;;12.88;5.57;;;5.80;92.80;;;6.24;75.13;99810.63;5039006;28;20045;-81
2021/03/14 08:44:36;;;;;;;13.43;5.30;;;5.90;92.80;;;6.24;75.27;99807.94;5034573;28;20116;-81
2021/03/14 08:47:27;;;;;;;11.07;5.25;;;5.80;92.70;;;6.28;75.68;99811.13;5027908;28;20057;-81
2021/03/14 08:50:06;;;;;;;10.85;5.20;;;6.00;93.00;;;6.29;75.96;99813.66;5032666;28;20049;-82
2021/03/14 08:52:42;;;;;;;11.10;5.28;;;5.90;93.30;;;6.31;76.32;99818.91;5033442;28;20073;-81
2021/03/14 08:55:28;;;;;;;13.45;4.97;;;5.90;93.30;;;6.30;76.35;99828.03;5033347;28;20049;-81
2021/03/14 08:57:55;;;;;;;16.05;5.80;;;5.90;93.30;;;6.31;76.17;99827.00;5040828;28;20053;-81
2021/03/14 09:00:23;;;;;;;12.05;5.53;;;5.90;93.60;;;6.33;76.21;99830.38;5030227;28;20068;-82
2021/03/14 09:02:59;;;;;;;15.38;6.05;;;6.00;93.70;;;6.33;77.10;99830.38;5031651;28;20084;-82
2021/03/14 09:06:24;;;;;;;16.88;7.18;;;6.00;94.00;;;6.34;76.72;99838.31;5032083;28;20040;-82
2021/03/14 09:08:57;;;;;;;17.95;8.60;;;6.00;94.00;;;6.36;76.92;99840.81;5027467;28;20484;-82
2021/03/14 09:11:41;;;;;;;12.88;7.20;;;6.10;94.20;;;6.37;77.23;99839.81;5030579;28;20263;-82
2021/03/14 09:14:28;;;;;;;15.73;7.13;;;6.10;94.20;;;6.36;76.78;99846.22;5031648;28;20053;-81
2021/03/14 09:16:58;;;;;;;15.98;7.57;;;6.10;93.80;;;6.32;77.57;99844.91;5030271;28;20073;-82
2021/03/14 09:19:32;;;;;;;18.45;8.98;;;6.20;93.60;;;6.30;77.49;99852.34;5030283;28;20053;-82
2021/03/14 09:22:02;;;;;;;16.77;7.85;;;6.10;93.60;;;6.34;77.92;99846.44;5031333;28;20049;-82
2021/03/14 09:24:39;;;;;;;14.52;7.95;;;6.20;94.00;;;6.36;77.91;99849.81;5032189;28;20069;-82
2021/03/14 09:27:15;;;;;;;21.17;9.70;;;6.20;94.20;;;6.33;78.12;99849.31;5029510;28;20140;-81
2021/03/14 09:29:49;;;;;;;21.10;9.32;;;6.30;94.00;;;6.39;78.12;99856.72;5046562;28;20057;-81
2021/03/14 09:32:34;;;;;;;15.70;8.73;;;6.40;94.00;;;6.40;77.63;99851.13;5030429;28;20049;-81
2021/03/14 09:35:20;;;;;;;16.92;10.05;;;6.40;93.50;;;6.42;78.24;99861.78;5030425;28;20419;-81
2021/03/14 09:37:51;;;;;;;18.42;9.27;;;6.30;94.40;;;6.47;78.82;99862.06;5023930;28;20045;-81
2021/03/14 09:40:29;;;;;;;19.67;11.10;;;6.40;94.60;;;6.47;78.51;99853.97;5032970;28;20521;-81
2021/03/14 09:43:15;;;;;;;23.58;11.25;;;6.50;94.70;;;6.46;78.75;99860.41;5032634;28;20057;-85
2021/03/14 09:46:03;;;;;;;19.08;10.70;;;6.70;94.00;;;6.53;79.10;99868.66;5031696;28;20057;-81
2021/03/14 09:48:35;;;;;;;31.80;17.33;;;6.60;94.20;;;6.56;79.25;99874.56;5038762;28;20403;-80
2021/03/14 09:51:06;;;;;;;19.75;10.82;;;6.60;94.10;;;6.56;78.83;99874.56;5029890;28;20132;-82
2021/03/14 09:53:36;;;;;;;19.10;8.90;;;6.60;93.60;;;6.59;78.22;99885.03;5031864;28;20042;-81
2021/03/14 09:56:07;;;;;;;17.45;8.73;;;6.60;94.00;;;6.61;78.88;99883.00;5033394;28;20163;-81
2021/03/14 09:58:52;;;;;;;16.67;9.10;;;6.60;94.20;;;6.64;78.43;99887.19;5033530;28;20064;-81
2021/03/14 10:01:19;;;;;;;20.40;10.65;;;6.60;93.80;;;6.64;78.54;99893.47;5034619;28;20052;-81
2021/03/14 10:03:58;;;;;;;16.10;8.80;;;6.60;94.20;;;6.62;78.35;99895.47;5034078;28;20048;-81
2021/03/14 10:06:38;;;;;;;18.00;9.30;;;6.60;94.00;;;6.63;78.52;99901.75;5030593;28;20054;-81
2021/03/14 10:09:21;;;;;;;14.30;7.10;;;6.60;94.50;;;6.67;79.19;99907.66;5037060;28;20155;-81
2021/03/14 10:11:51;;;;;;;16.63;7.72;;;6.60;94.40;;;6.66;78.80;99906.78;5036954;28;20057;-81
2021/03/14 10:14:19;;;;;;;15.60;7.45;;;6.60;94.20;;;6.63;78.99;99913.41;5053513;28;20119;-81
2021/03/14 10:16:48;;;;;;;15.63;7.43;;;6.60;94.20;;;6.64;79.31;99915.09;5035452;28;20053;-82
2021/03/14 10:19:16;;;;;;;13.60;8.20;;;6.60;94.50;;;6.63;78.78;99910.69;5037654;28;20105;-81
2021/03/14 10:21:45;;;;;;;17.52;9.43;;;6.70;94.50;;;6.65;79.68;99922.19;5039218;28;20036;-81
2021/03/14 10:24:27;;;;;;;14.73;8.35;;;6.70;94.80;;;6.68;79.95;99922.84;5035676;28;20065;-81
2021/03/14 10:27:21;;;;;;;;;;;6.70;94.90;;;6.68;79.66;99922.84;5052833;28;20500;-81
2021/03/14 10:30:01;;;;;;;21.60;9.07;;;6.80;94.70;;;6.70;79.71;99923.50;5037085;28;19932;-81
2021/03/14 10:32:46;;;;;;;19.92;11.05;;;6.80;94.60;;;6.75;79.39;99931.94;5036615;28;20526;-81
2021/03/14 10:35:21;;;;;;;19.15;11.35;;;6.90;94.40;;;6.75;80.59;99930.09;5053236;28;20053;-81
2021/03/14 10:37:48;;;;;;;18.05;10.85;;;7.00;94.70;;;6.73;81.10;99931.28;5034569;28;20061;-81
2021/03/14 10:40:23;;;;;;;23.33;12.50;;;7.20;94.90;;;6.80;81.65;99935.00;5036330;28;20073;-83
2021/03/14 10:42:54;;;;;;;25.13;12.63;;;7.40;94.40;;;6.83;81.57;99923.81;5035613;28;20049;-81
2021/03/14 10:45:29;;;;;;;19.15;11.90;;;7.50;94.00;;;6.92;81.84;99933.56;5036973;28;20038;-81